sensor_id;sensor_type;location;lat;lon;timestamp;pressure;altitude;pressure_sealevel;temperature;humidity
4469;BME280;2247;42.666;23.292;2023-12-20T00:02:04;94725.28;;;6.92;60.93
4469;BME280;2247;42.666;23.292;2023-12-20T00:04:31;94726.09;;;6.93;61.16
4469;BME280;2247;42.666;23.292;2023-12-20T00:06:58;94719.59;;;6.95;61.13
4469;BME280;2247;42.666;23.292;2023-12-20T00:09:26;94720.56;;;6.89;61.29
4469;BME280;2247;42.666;23.292;2023-12-20T00:11:54;94713.16;;;6.86;61.28
4469;BME280;2247;42.666;23.292;2023-12-20T00:14:21;94726.50;;;6.85;61.17
4469;BME280;2247;42.666;23.292;2023-12-20T00:16:48;94705.16;;;6.76;61.43
4469;BME280;2247;42.666;23.292;2023-12-20T00:19:15;94701.75;;;6.76;61.40
4469;BME280;2247;42.666;23.292;2023-12-20T00:21:42;94707.84;;;6.81;61.25
4469;BME280;2247;42.666;23.292;2023-12-20T00:24:09;94696.03;;;6.79;61.14
4469;BME280;2247;42.666;23.292;2023-12-20T00:26:35;94698.41;;;6.80;61.54
4469;BME280;2247;42.666;23.292;2023-12-20T00:29:04;94692.88;;;6.77;61.42
4469;BME280;2247;42.666;23.292;2023-12-20T00:31:31;94642.41;;;6.48;61.21
4469;BME280;2247;42.666;23.292;2023-12-20T00:33:57;94679.50;;;6.78;61.06
4469;BME280;2247;42.666;23.292;2023-12-20T00:36:24;94683.41;;;6.76;61.21
4469;BME280;2247;42.666;23.292;2023-12-20T00:38:51;94680.47;;;6.72;61.10
4469;BME280;2247;42.666;23.292;2023-12-20T00:41:18;94678.88;;;6.71;61.21
4469;BME280;2247;42.666;23.292;2023-12-20T00:43:45;94674.72;;;6.70;61.32
4469;BME280;2247;42.666;23.292;2023-12-20T00:46:14;94668.75;;;6.75;61.10
4469;BME280;2247;42.666;23.292;2023-12-20T00:48:40;94665.56;;;6.72;61.14
4469;BME280;2247;42.666;23.292;2023-12-20T00:51:11;94672.00;;;6.65;61.63
4469;BME280;2247;42.666;23.292;2023-12-20T00:53:37;94665.88;;;6.59;62.05
4469;BME280;2247;42.666;23.292;2023-12-20T00:56:05;94659.56;;;6.55;61.91
4469;BME280;2247;42.666;23.292;2023-12-20T00:58:32;94665.31;;;6.57;61.52
4469;BME280;2247;42.666;23.292;2023-12-20T01:00:59;94659.63;;;6.60;61.13
4469;BME280;2247;42.666;23.292;2023-12-20T01:03:27;94659.84;;;6.59;60.85
4469;BME280;2247;42.666;23.292;2023-12-20T01:05:54;94653.81;;;6.58;60.96
4469;BME280;2247;42.666;23.292;2023-12-20T01:08:21;94652.78;;;6.59;60.55
4469;BME280;2247;42.666;23.292;2023-12-20T01:10:48;94641.28;;;6.60;60.70
4469;BME280;2247;42.666;23.292;2023-12-20T01:13:15;94642.09;;;6.61;60.80
4469;BME280;2247;42.666;23.292;2023-12-20T01:15:42;94643.91;;;6.60;60.95
4469;BME280;2247;42.666;23.292;2023-12-20T01:18:09;94643.28;;;6.53;61.18
4469;BME280;2247;42.666;23.292;2023-12-20T01:20:37;94643.06;;;6.55;61.41
4469;BME280;2247;42.666;23.292;2023-12-20T01:23:05;94633.59;;;6.54;61.46
4469;BME280;2247;42.666;23.292;2023-12-20T01:25:32;94638.28;;;6.52;61.49
4469;BME280;2247;42.666;23.292;2023-12-20T01:27:59;94636.22;;;6.54;61.32
4469;BME280;2247;42.666;23.292;2023-12-20T01:30:25;94621.16;;;6.44;61.59
4469;BME280;2247;42.666;23.292;2023-12-20T01:32:52;94624.78;;;6.43;61.41
4469;BME280;2247;42.666;23.292;2023-12-20T01:35:19;94629.50;;;6.41;61.55
4469;BME280;2247;42.666;23.292;2023-12-20T01:37:48;94619.09;;;6.46;61.44
4469;BME280;2247;42.666;23.292;2023-12-20T01:40:15;94613.88;;;6.46;61.29
4469;BME280;2247;42.666;23.292;2023-12-20T01:42:42;94616.25;;;6.48;61.20
4469;BME280;2247;42.666;23.292;2023-12-20T01:45:09;94604.91;;;6.42;61.30
4469;BME280;2247;42.666;23.292;2023-12-20T01:47:36;94592.28;;;6.39;61.58
4469;BME280;2247;42.666;23.292;2023-12-20T01:50:05;94595.41;;;6.36;61.92
4469;BME280;2247;42.666;23.292;2023-12-20T01:52:34;94594.91;;;6.39;61.75
4469;BME280;2247;42.666;23.292;2023-12-20T01:55:04;94578.66;;;6.37;61.64
4469;BME280;2247;42.666;23.292;2023-12-20T01:57:38;94589.84;;;6.32;62.00
4469;BME280;2247;42.666;23.292;2023-12-20T02:00:07;94589.84;;;6.32;62.09
4469;BME280;2247;42.666;23.292;2023-12-20T02:02:36;94583.75;;;6.27;62.05
4469;BME280;2247;42.666;23.292;2023-12-20T02:05:05;94584.06;;;6.30;61.77
4469;BME280;2247;42.666;23.292;2023-12-20T02:07:32;94571.75;;;6.31;61.86
4469;BME280;2247;42.666;23.292;2023-12-20T02:10:00;94574.88;;;6.28;61.81
4469;BME280;2247;42.666;23.292;2023-12-20T02:12:28;94540.63;;;6.13;61.48
4469;BME280;2247;42.666;23.292;2023-12-20T02:14:56;94554.63;;;6.23;61.41
4469;BME280;2247;42.666;23.292;2023-12-20T02:17:23;94566.28;;;6.32;61.31
4469;BME280;2247;42.666;23.292;2023-12-20T02:19:50;94555.84;;;6.32;61.08
4469;BME280;2247;42.666;23.292;2023-12-20T02:22:18;94564.72;;;6.31;61.02
4469;BME280;2247;42.666;23.292;2023-12-20T02:24:45;94562.88;;;6.32;60.93
4469;BME280;2247;42.666;23.292;2023-12-20T02:27:12;94556.28;;;6.29;61.11
4469;BME280;2247;42.666;23.292;2023-12-20T02:29:39;94552.41;;;6.32;61.08
4469;BME280;2247;42.666;23.292;2023-12-20T02:32:06;94555.28;;;6.30;61.17
4469;BME280;2247;42.666;23.292;2023-12-20T02:34:33;94546.09;;;6.28;61.16
4469;BME280;2247;42.666;23.292;2023-12-20T02:37:00;94542.69;;;6.27;61.26
4469;BME280;2247;42.666;23.292;2023-12-20T02:39:28;94536.41;;;6.28;61.08
4469;BME280;2247;42.666;23.292;2023-12-20T02:41:55;94534.75;;;6.22;61.12
4469;BME280;2247;42.666;23.292;2023-12-20T02:44:22;94533.66;;;6.18;61.05
4469;BME280;2247;42.666;23.292;2023-12-20T02:46:50;94540.69;;;6.18;61.02
4469;BME280;2247;42.666;23.292;2023-12-20T02:49:16;94533.34;;;6.15;61.06
4469;BME280;2247;42.666;23.292;2023-12-20T02:51:43;94535.69;;;6.16;60.96
4469;BME280;2247;42.666;23.292;2023-12-20T02:54:11;94534.44;;;6.19;60.76
4469;BME280;2247;42.666;23.292;2023-12-20T02:56:40;94534.38;;;6.14;60.75
4469;BME280;2247;42.666;23.292;2023-12-20T02:59:07;94537.53;;;6.16;60.64
4469;BME280;2247;42.666;23.292;2023-12-20T03:01:34;94537.00;;;6.14;60.39
4469;BME280;2247;42.666;23.292;2023-12-20T03:04:01;94532.22;;;6.11;60.64
4469;BME280;2247;42.666;23.292;2023-12-20T03:06:28;94528.56;;;6.12;60.47
4469;BME280;2247;42.666;23.292;2023-12-20T03:08:55;94525.91;;;6.07;60.82
4469;BME280;2247;42.666;23.292;2023-12-20T03:11:26;94527.22;;;6.09;61.20
4469;BME280;2247;42.666;23.292;2023-12-20T03:13:55;94529.47;;;6.01;61.34
4469;BME280;2247;42.666;23.292;2023-12-20T03:16:22;94525.72;;;5.97;61.75
4469;BME280;2247;42.666;23.292;2023-12-20T03:18:49;94538.34;;;6.00;61.52
4469;BME280;2247;42.666;23.292;2023-12-20T03:21:16;94529.78;;;5.87;62.20
4469;BME280;2247;42.666;23.292;2023-12-20T03:23:43;94525.88;;;5.90;61.96
4469;BME280;2247;42.666;23.292;2023-12-20T03:26:10;94528.41;;;5.85;62.20
4469;BME280;2247;42.666;23.292;2023-12-20T03:28:37;94521.03;;;5.82;62.31
4469;BME280;2247;42.666;23.292;2023-12-20T03:31:05;94517.59;;;5.81;61.88
4469;BME280;2247;42.666;23.292;2023-12-20T03:33:32;94510.09;;;5.85;61.93
4469;BME280;2247;42.666;23.292;2023-12-20T03:35:59;94512.94;;;5.83;61.82
4469;BME280;2247;42.666;23.292;2023-12-20T03:38:25;94514.75;;;5.83;61.50
4469;BME280;2247;42.666;23.292;2023-12-20T03:40:52;94506.69;;;5.84;61.17
4469;BME280;2247;42.666;23.292;2023-12-20T03:43:19;94506.28;;;5.76;61.35
4469;BME280;2247;42.666;23.292;2023-12-20T03:45:46;94509.22;;;5.46;61.93
4469;BME280;2247;42.666;23.292;2023-12-20T03:48:15;94512.50;;;5.25;62.62
4469;BME280;2247;42.666;23.292;2023-12-20T03:50:41;94512.38;;;5.20;62.95
4469;BME280;2247;42.666;23.292;2023-12-20T03:53:08;94503.00;;;5.19;63.06
4469;BME280;2247;42.666;23.292;2023-12-20T03:55:35;94502.50;;;5.22;63.13
4469;BME280;2247;42.666;23.292;2023-12-20T03:58:02;94504.09;;;5.23;63.40
4469;BME280;2247;42.666;23.292;2023-12-20T04:00:29;94500.88;;;5.32;63.30
4469;BME280;2247;42.666;23.292;2023-12-20T04:02:56;94498.50;;;5.31;63.34
4469;BME280;2247;42.666;23.292;2023-12-20T04:05:25;94496.19;;;5.34;62.96
4469;BME280;2247;42.666;23.292;2023-12-20T04:07:52;94496.28;;;5.39;62.94
4469;BME280;2247;42.666;23.292;2023-12-20T04:10:19;94487.34;;;5.35;63.18
4469;BME280;2247;42.666;23.292;2023-12-20T04:12:46;94493.13;;;5.37;62.82
4469;BME280;2247;42.666;23.292;2023-12-20T04:15:13;94471.50;;;5.42;62.62
4469;BME280;2247;42.666;23.292;2023-12-20T04:17:40;94474.59;;;5.39;62.90
4469;BME280;2247;42.666;23.292;2023-12-20T04:20:08;94466.78;;;5.39;62.60
4469;BME280;2247;42.666;23.292;2023-12-20T04:22:36;94480.38;;;5.41;62.67
4469;BME280;2247;42.666;23.292;2023-12-20T04:25:03;94476.16;;;5.40;62.46
4469;BME280;2247;42.666;23.292;2023-12-20T04:27:30;94473.56;;;5.40;62.29
4469;BME280;2247;42.666;23.292;2023-12-20T04:29:57;94471.50;;;5.42;62.22
4469;BME280;2247;42.666;23.292;2023-12-20T04:32:24;94467.06;;;5.42;62.11
4469;BME280;2247;42.666;23.292;2023-12-20T04:34:51;94466.06;;;5.43;62.11
4469;BME280;2247;42.666;23.292;2023-12-20T04:37:18;94464.53;;;5.47;61.84
4469;BME280;2247;42.666;23.292;2023-12-20T04:39:47;94455.53;;;5.38;62.22
4469;BME280;2247;42.666;23.292;2023-12-20T04:42:14;94450.69;;;5.47;62.07
4469;BME280;2247;42.666;23.292;2023-12-20T04:44:40;94459.09;;;5.49;62.27
4469;BME280;2247;42.666;23.292;2023-12-20T04:47:09;94454.09;;;5.47;62.33
4469;BME280;2247;42.666;23.292;2023-12-20T04:49:36;94445.00;;;5.50;62.42
4469;BME280;2247;42.666;23.292;2023-12-20T04:52:03;94446.41;;;5.41;62.50
4469;BME280;2247;42.666;23.292;2023-12-20T04:54:31;94454.56;;;5.44;62.36
4469;BME280;2247;42.666;23.292;2023-12-20T04:56:59;94453.00;;;5.43;62.38
4469;BME280;2247;42.666;23.292;2023-12-20T04:59:26;94455.53;;;5.38;62.47
4469;BME280;2247;42.666;23.292;2023-12-20T05:01:53;94454.25;;;5.41;62.28
4469;BME280;2247;42.666;23.292;2023-12-20T05:04:20;94446.47;;;5.29;62.26
4469;BME280;2247;42.666;23.292;2023-12-20T05:06:47;94443.16;;;5.34;62.20
4469;BME280;2247;42.666;23.292;2023-12-20T05:09:15;94436.81;;;5.30;62.04
4469;BME280;2247;42.666;23.292;2023-12-20T05:11:42;94437.63;;;5.30;62.18
4469;BME280;2247;42.666;23.292;2023-12-20T05:14:10;94438.94;;;5.33;62.09
4469;BME280;2247;42.666;23.292;2023-12-20T05:16:37;94433.81;;;5.21;62.22
4469;BME280;2247;42.666;23.292;2023-12-20T05:19:04;94440.38;;;5.24;62.23
4469;BME280;2247;42.666;23.292;2023-12-20T05:21:32;94445.06;;;5.22;61.57
4469;BME280;2247;42.666;23.292;2023-12-20T05:23:59;94445.75;;;5.17;61.39
4469;BME280;2247;42.666;23.292;2023-12-20T05:26:26;94420.19;;;5.02;60.51
4469;BME280;2247;42.666;23.292;2023-12-20T05:28:55;94428.25;;;5.01;60.71
4469;BME280;2247;42.666;23.292;2023-12-20T05:31:23;94430.44;;;4.92;61.03
4469;BME280;2247;42.666;23.292;2023-12-20T05:33:50;94429.75;;;4.68;61.54
4469;BME280;2247;42.666;23.292;2023-12-20T05:36:18;94422.94;;;4.67;61.82
4469;BME280;2247;42.666;23.292;2023-12-20T05:38:45;94418.44;;;4.63;61.95
4469;BME280;2247;42.666;23.292;2023-12-20T05:41:12;94422.94;;;4.67;61.96
4469;BME280;2247;42.666;23.292;2023-12-20T05:43:39;94417.38;;;4.64;61.97
4469;BME280;2247;42.666;23.292;2023-12-20T05:46:06;94422.28;;;4.60;62.39
4469;BME280;2247;42.666;23.292;2023-12-20T05:48:34;94425.13;;;4.59;62.71
4469;BME280;2247;42.666;23.292;2023-12-20T05:51:01;94416.50;;;4.58;62.54
4469;BME280;2247;42.666;23.292;2023-12-20T05:53:28;94406.56;;;4.55;62.58
4469;BME280;2247;42.666;23.292;2023-12-20T05:55:55;94413.84;;;4.42;63.06
4469;BME280;2247;42.666;23.292;2023-12-20T05:58:22;94412.03;;;4.42;63.12
4469;BME280;2247;42.666;23.292;2023-12-20T06:00:49;94409.19;;;4.44;63.36
4469;BME280;2247;42.666;23.292;2023-12-20T06:03:16;94406.56;;;4.44;63.68
4469;BME280;2247;42.666;23.292;2023-12-20T06:05:45;94397.41;;;4.41;63.83
4469;BME280;2247;42.666;23.292;2023-12-20T06:08:11;94406.91;;;4.47;63.62
4469;BME280;2247;42.666;23.292;2023-12-20T06:10:38;94409.31;;;4.49;63.25
4469;BME280;2247;42.666;23.292;2023-12-20T06:13:05;94396.78;;;4.51;63.15
4469;BME280;2247;42.666;23.292;2023-12-20T06:15:33;94406.78;;;4.54;63.04
4469;BME280;2247;42.666;23.292;2023-12-20T06:18:00;94411.59;;;4.33;63.81
4469;BME280;2247;42.666;23.292;2023-12-20T06:20:28;94401.75;;;4.35;63.97
4469;BME280;2247;42.666;23.292;2023-12-20T06:22:56;94413.50;;;4.38;64.31
4469;BME280;2247;42.666;23.292;2023-12-20T06:25:23;94423.13;;;4.49;64.03
4469;BME280;2247;42.666;23.292;2023-12-20T06:27:50;94397.94;;;4.55;63.79
4469;BME280;2247;42.666;23.292;2023-12-20T06:30:17;94404.88;;;4.49;64.29
4469;BME280;2247;42.666;23.292;2023-12-20T06:32:44;94417.66;;;4.51;64.48
4469;BME280;2247;42.666;23.292;2023-12-20T06:35:12;94401.09;;;4.57;64.53
4469;BME280;2247;42.666;23.292;2023-12-20T06:37:39;94404.16;;;4.54;65.15
4469;BME280;2247;42.666;23.292;2023-12-20T06:40:10;94401.41;;;4.60;64.87
4469;BME280;2247;42.666;23.292;2023-12-20T06:42:38;94388.78;;;4.41;64.88
4469;BME280;2247;42.666;23.292;2023-12-20T06:45:05;94394.47;;;4.66;65.29
4469;BME280;2247;42.666;23.292;2023-12-20T06:47:32;94398.06;;;4.77;65.43
4469;BME280;2247;42.666;23.292;2023-12-20T06:49:59;94396.16;;;4.72;65.27
4469;BME280;2247;42.666;23.292;2023-12-20T06:52:26;94389.16;;;4.89;65.17
4469;BME280;2247;42.666;23.292;2023-12-20T06:54:53;94392.72;;;5.00;65.08
4469;BME280;2247;42.666;23.292;2023-12-20T06:57:21;94392.03;;;5.04;64.87
4469;BME280;2247;42.666;23.292;2023-12-20T06:59:49;94380.06;;;5.08;64.75
4469;BME280;2247;42.666;23.292;2023-12-20T07:02:17;94390.69;;;5.19;64.03
4469;BME280;2247;42.666;23.292;2023-12-20T07:04:44;94376.28;;;5.16;64.08
4469;BME280;2247;42.666;23.292;2023-12-20T07:07:11;94380.31;;;5.24;63.73
4469;BME280;2247;42.666;23.292;2023-12-20T07:09:38;94371.19;;;5.26;64.04
4469;BME280;2247;42.666;23.292;2023-12-20T07:12:08;94379.38;;;5.30;63.68
4469;BME280;2247;42.666;23.292;2023-12-20T07:14:37;94387.19;;;5.46;63.83
4469;BME280;2247;42.666;23.292;2023-12-20T07:17:03;94376.25;;;5.49;63.41
4469;BME280;2247;42.666;23.292;2023-12-20T07:19:32;94378.25;;;5.59;62.68
4469;BME280;2247;42.666;23.292;2023-12-20T07:21:59;94365.00;;;5.66;62.17
4469;BME280;2247;42.666;23.292;2023-12-20T07:24:26;94377.91;;;5.72;61.97
4469;BME280;2247;42.666;23.292;2023-12-20T07:26:53;94343.31;;;5.48;61.90
4469;BME280;2247;42.666;23.292;2023-12-20T07:29:20;94371.03;;;5.66;61.56
4469;BME280;2247;42.666;23.292;2023-12-20T07:31:48;94356.66;;;5.69;61.35
4469;BME280;2247;42.666;23.292;2023-12-20T07:34:17;94344.09;;;5.66;61.26
4469;BME280;2247;42.666;23.292;2023-12-20T07:36:44;94347.69;;;5.81;61.09
4469;BME280;2247;42.666;23.292;2023-12-20T07:39:11;94359.66;;;5.77;61.26
4469;BME280;2247;42.666;23.292;2023-12-20T07:41:38;94369.50;;;5.70;61.63
4469;BME280;2247;42.666;23.292;2023-12-20T07:44:06;94355.75;;;5.58;61.70
4469;BME280;2247;42.666;23.292;2023-12-20T07:46:33;94354.28;;;5.67;61.75
4469;BME280;2247;42.666;23.292;2023-12-20T07:49:01;94364.84;;;5.72;61.89
4469;BME280;2247;42.666;23.292;2023-12-20T07:51:28;94366.81;;;5.65;61.85
4469;BME280;2247;42.666;23.292;2023-12-20T07:53:55;94340.50;;;5.72;61.94
4469;BME280;2247;42.666;23.292;2023-12-20T07:56:22;94345.28;;;5.58;62.47
4469;BME280;2247;42.666;23.292;2023-12-20T07:58:49;94356.19;;;5.72;62.25
4469;BME280;2247;42.666;23.292;2023-12-20T08:01:16;94342.91;;;5.73;62.40
4469;BME280;2247;42.666;23.292;2023-12-20T08:03:44;94339.41;;;5.68;62.09
4469;BME280;2247;42.666;23.292;2023-12-20T08:06:13;94347.56;;;5.71;62.59
4469;BME280;2247;42.666;23.292;2023-12-20T08:08:40;94337.16;;;5.76;62.74
4469;BME280;2247;42.666;23.292;2023-12-20T08:11:07;94358.41;;;5.80;62.46
4469;BME280;2247;42.666;23.292;2023-12-20T08:13:34;94336.94;;;5.78;62.89
4469;BME280;2247;42.666;23.292;2023-12-20T08:16:01;94331.09;;;5.87;63.10
4469;BME280;2247;42.666;23.292;2023-12-20T08:18:28;94331.13;;;5.92;63.15
4469;BME280;2247;42.666;23.292;2023-12-20T08:20:55;94338.66;;;6.11;62.47
4469;BME280;2247;42.666;23.292;2023-12-20T08:23:23;94314.34;;;6.10;62.66
4469;BME280;2247;42.666;23.292;2023-12-20T08:25:50;94327.31;;;6.22;62.13
4469;BME280;2247;42.666;23.292;2023-12-20T08:28:17;94320.22;;;6.22;61.73
4469;BME280;2247;42.666;23.292;2023-12-20T08:30:44;94304.97;;;6.14;61.77
4469;BME280;2247;42.666;23.292;2023-12-20T08:33:11;94314.47;;;6.20;61.96
4469;BME280;2247;42.666;23.292;2023-12-20T08:35:38;94321.00;;;6.23;61.84
4469;BME280;2247;42.666;23.292;2023-12-20T08:38:06;94309.84;;;6.27;61.98
4469;BME280;2247;42.666;23.292;2023-12-20T08:40:34;94307.94;;;6.23;62.24
4469;BME280;2247;42.666;23.292;2023-12-20T08:43:01;94301.38;;;6.20;62.07
4469;BME280;2247;42.666;23.292;2023-12-20T08:45:28;94295.97;;;6.27;62.20
4469;BME280;2247;42.666;23.292;2023-12-20T08:47:55;94290.22;;;6.30;62.06
4469;BME280;2247;42.666;23.292;2023-12-20T08:50:22;94291.09;;;6.36;61.59
4469;BME280;2247;42.666;23.292;2023-12-20T08:52:50;94292.19;;;6.45;61.93
4469;BME280;2247;42.666;23.292;2023-12-20T08:55:17;94289.78;;;6.38;62.27
4469;BME280;2247;42.666;23.292;2023-12-20T08:57:46;94286.38;;;6.38;62.01
4469;BME280;2247;42.666;23.292;2023-12-20T09:00:16;94282.38;;;6.30;62.14
4469;BME280;2247;42.666;23.292;2023-12-20T09:02:43;94281.44;;;6.41;62.08
4469;BME280;2247;42.666;23.292;2023-12-20T09:05:10;94271.06;;;6.51;62.16
4469;BME280;2247;42.666;23.292;2023-12-20T09:07:37;94269.44;;;6.45;62.05
4469;BME280;2247;42.666;23.292;2023-12-20T09:10:04;94253.25;;;6.48;61.63
4469;BME280;2247;42.666;23.292;2023-12-20T09:12:31;94248.84;;;6.54;61.55
4469;BME280;2247;42.666;23.292;2023-12-20T09:14:59;94245.47;;;6.58;61.30
4469;BME280;2247;42.666;23.292;2023-12-20T09:17:28;94225.41;;;6.69;61.46
4469;BME280;2247;42.666;23.292;2023-12-20T09:19:55;94224.16;;;6.77;61.19
4469;BME280;2247;42.666;23.292;2023-12-20T09:22:22;94195.09;;;6.78;61.30
4469;BME280;2247;42.666;23.292;2023-12-20T09:24:48;94210.19;;;6.98;60.83
4469;BME280;2247;42.666;23.292;2023-12-20T09:27:15;94205.47;;;7.00;60.83
4469;BME280;2247;42.666;23.292;2023-12-20T09:29:42;94184.13;;;6.81;60.89
4469;BME280;2247;42.666;23.292;2023-12-20T09:32:11;94201.31;;;7.04;60.55
4469;BME280;2247;42.666;23.292;2023-12-20T09:34:38;94190.06;;;7.08;60.38
4469;BME280;2247;42.666;23.292;2023-12-20T09:37:05;94186.16;;;7.11;60.27
4469;BME280;2247;42.666;23.292;2023-12-20T09:39:33;94182.53;;;7.22;60.22
4469;BME280;2247;42.666;23.292;2023-12-20T09:42:01;94182.28;;;7.24;59.96
4469;BME280;2247;42.666;23.292;2023-12-20T09:44:28;94177.28;;;7.22;60.10
4469;BME280;2247;42.666;23.292;2023-12-20T09:46:56;94167.78;;;7.06;60.37
4469;BME280;2247;42.666;23.292;2023-12-20T09:49:25;94164.03;;;6.92;60.88
4469;BME280;2247;42.666;23.292;2023-12-20T09:51:54;94148.63;;;7.00;61.05
4469;BME280;2247;42.666;23.292;2023-12-20T09:54:21;94157.28;;;7.06;61.25
4469;BME280;2247;42.666;23.292;2023-12-20T09:56:49;94151.81;;;7.12;61.06
4469;BME280;2247;42.666;23.292;2023-12-20T09:59:16;94133.22;;;7.09;60.60
4469;BME280;2247;42.666;23.292;2023-12-20T10:01:43;94132.66;;;7.02;60.55
4469;BME280;2247;42.666;23.292;2023-12-20T10:04:12;94147.69;;;7.27;60.73
4469;BME280;2247;42.666;23.292;2023-12-20T10:06:42;94146.97;;;7.36;60.73
4469;BME280;2247;42.666;23.292;2023-12-20T10:09:10;94146.72;;;7.48;60.23
4469;BME280;2247;42.666;23.292;2023-12-20T10:11:37;94151.78;;;7.70;60.40
4469;BME280;2247;42.666;23.292;2023-12-20T10:14:05;94123.22;;;7.83;60.29
4469;BME280;2247;42.666;23.292;2023-12-20T10:16:33;94095.69;;;7.71;59.00
4469;BME280;2247;42.666;23.292;2023-12-20T10:19:00;94129.28;;;8.04;58.68
4469;BME280;2247;42.666;23.292;2023-12-20T10:21:27;94077.34;;;7.86;58.77
4469;BME280;2247;42.666;23.292;2023-12-20T10:23:57;94108.84;;;8.21;58.72
4469;BME280;2247;42.666;23.292;2023-12-20T10:26:25;94114.63;;;8.44;58.73
4469;BME280;2247;42.666;23.292;2023-12-20T10:28:53;94097.59;;;8.36;58.11
4469;BME280;2247;42.666;23.292;2023-12-20T10:31:30;94103.63;;;8.32;57.65
4469;BME280;2247;42.666;23.292;2023-12-20T10:33:58;94099.94;;;8.33;57.40
4469;BME280;2247;42.666;23.292;2023-12-20T10:36:25;94083.13;;;8.23;57.67
4469;BME280;2247;42.666;23.292;2023-12-20T10:38:54;94071.81;;;8.23;57.48
4469;BME280;2247;42.666;23.292;2023-12-20T10:41:25;94084.19;;;8.22;58.09
4469;BME280;2247;42.666;23.292;2023-12-20T10:43:55;94074.22;;;8.35;57.97
4469;BME280;2247;42.666;23.292;2023-12-20T10:46:23;94072.34;;;8.25;57.97
4469;BME280;2247;42.666;23.292;2023-12-20T10:48:53;94043.75;;;8.28;57.88
4469;BME280;2247;42.666;23.292;2023-12-20T10:51:21;94067.13;;;8.40;58.08
4469;BME280;2247;42.666;23.292;2023-12-20T10:53:50;94061.88;;;8.40;57.95
4469;BME280;2247;42.666;23.292;2023-12-20T10:56:18;94060.03;;;8.41;57.55
4469;BME280;2247;42.666;23.292;2023-12-20T11:01:36;94050.59;;;8.35;57.28
4469;BME280;2247;42.666;23.292;2023-12-20T11:04:06;94032.47;;;8.28;58.08
4469;BME280;2247;42.666;23.292;2023-12-20T11:06:43;94011.78;;;8.01;57.98
4469;BME280;2247;42.666;23.292;2023-12-20T11:09:17;94029.84;;;8.03;58.05
4469;BME280;2247;42.666;23.292;2023-12-20T11:11:56;94022.78;;;8.08;58.13
4469;BME280;2247;42.666;23.292;2023-12-20T11:14:31;94029.06;;;7.97;58.67
4469;BME280;2247;42.666;23.292;2023-12-20T11:17:06;94027.00;;;7.94;58.81
4469;BME280;2247;42.666;23.292;2023-12-20T11:19:36;93999.69;;;8.00;58.73
4469;BME280;2247;42.666;23.292;2023-12-20T11:22:04;94018.06;;;7.90;58.82
4469;BME280;2247;42.666;23.292;2023-12-20T11:24:31;93929.97;;;7.48;59.57
4469;BME280;2247;42.666;23.292;2023-12-20T11:27:00;94000.75;;;7.89;59.31
4469;BME280;2247;42.666;23.292;2023-12-20T11:29:36;93986.84;;;7.88;59.94
4469;BME280;2247;42.666;23.292;2023-12-20T11:32:28;93980.56;;;7.95;60.12
4469;BME280;2247;42.666;23.292;2023-12-20T11:34:56;93975.03;;;8.01;59.36
4469;BME280;2247;42.666;23.292;2023-12-20T11:37:29;93960.38;;;7.85;59.59
4469;BME280;2247;42.666;23.292;2023-12-20T11:40:00;93960.38;;;7.70;60.41
4469;BME280;2247;42.666;23.292;2023-12-20T11:42:32;93951.72;;;7.74;60.34
4469;BME280;2247;42.666;23.292;2023-12-20T11:45:03;93959.84;;;7.73;60.44
4469;BME280;2247;42.666;23.292;2023-12-20T11:47:30;93938.38;;;7.66;60.80
4469;BME280;2247;42.666;23.292;2023-12-20T11:49:58;93941.50;;;7.73;60.63
4469;BME280;2247;42.666;23.292;2023-12-20T11:52:26;93932.56;;;7.79;60.76
4469;BME280;2247;42.666;23.292;2023-12-20T11:54:52;93945.16;;;7.92;60.64
4469;BME280;2247;42.666;23.292;2023-12-20T11:57:19;93937.78;;;7.99;60.50
4469;BME280;2247;42.666;23.292;2023-12-20T11:59:46;93924.63;;;8.09;60.32
4469;BME280;2247;42.666;23.292;2023-12-20T12:02:15;93920.22;;;8.00;60.75
4469;BME280;2247;42.666;23.292;2023-12-20T12:04:42;93902.66;;;7.95;60.79
4469;BME280;2247;42.666;23.292;2023-12-20T12:07:09;93916.53;;;8.06;61.03
4469;BME280;2247;42.666;23.292;2023-12-20T12:09:36;93898.97;;;8.01;60.77
4469;BME280;2247;42.666;23.292;2023-12-20T12:12:03;93896.56;;;8.10;61.05
4469;BME280;2247;42.666;23.292;2023-12-20T12:14:31;93904.16;;;8.21;61.03
4469;BME280;2247;42.666;23.292;2023-12-20T12:16:57;93893.38;;;8.33;60.77
4469;BME280;2247;42.666;23.292;2023-12-20T12:19:26;93849.59;;;8.13;60.19
4469;BME280;2247;42.666;23.292;2023-12-20T12:22:04;93879.63;;;8.51;60.06
4469;BME280;2247;42.666;23.292;2023-12-20T12:24:31;93884.34;;;8.54;59.88
4469;BME280;2247;42.666;23.292;2023-12-20T12:26:58;93877.00;;;8.56;60.10
4469;BME280;2247;42.666;23.292;2023-12-20T12:29:25;93868.84;;;8.58;59.79
4469;BME280;2247;42.666;23.292;2023-12-20T12:31:52;93879.81;;;8.70;59.47
4469;BME280;2247;42.666;23.292;2023-12-20T12:34:19;93878.16;;;8.79;58.97
4469;BME280;2247;42.666;23.292;2023-12-20T12:36:48;93882.34;;;8.85;58.77
4469;BME280;2247;42.666;23.292;2023-12-20T12:39:15;93889.94;;;8.92;58.73
4469;BME280;2247;42.666;23.292;2023-12-20T12:41:44;93871.81;;;8.90;58.47
4469;BME280;2247;42.666;23.292;2023-12-20T12:44:11;93881.28;;;8.91;58.06
4469;BME280;2247;42.666;23.292;2023-12-20T12:46:38;93872.91;;;8.84;57.97
4469;BME280;2247;42.666;23.292;2023-12-20T12:49:05;93866.69;;;8.65;59.22
4469;BME280;2247;42.666;23.292;2023-12-20T12:51:32;93863.06;;;8.61;59.52
4469;BME280;2247;42.666;23.292;2023-12-20T12:54:00;93865.91;;;8.69;59.14
4469;BME280;2247;42.666;23.292;2023-12-20T12:56:27;93870.41;;;8.59;59.40
4469;BME280;2247;42.666;23.292;2023-12-20T12:58:54;93845.78;;;8.50;59.50
4469;BME280;2247;42.666;23.292;2023-12-20T13:01:21;93865.59;;;8.76;58.62
4469;BME280;2247;42.666;23.292;2023-12-20T13:03:48;93860.81;;;8.83;58.51
4469;BME280;2247;42.666;23.292;2023-12-20T13:06:15;93859.78;;;8.84;58.75
4469;BME280;2247;42.666;23.292;2023-12-20T13:08:43;93863.94;;;8.90;58.44
4469;BME280;2247;42.666;23.292;2023-12-20T13:11:12;93861.25;;;8.95;58.26
4469;BME280;2247;42.666;23.292;2023-12-20T13:13:39;93845.13;;;8.73;58.57
4469;BME280;2247;42.666;23.292;2023-12-20T13:16:06;93858.19;;;8.83;58.82
4469;BME280;2247;42.666;23.292;2023-12-20T13:18:33;93842.25;;;8.69;58.95
4469;BME280;2247;42.666;23.292;2023-12-20T13:21:00;93854.94;;;8.52;59.39
4469;BME280;2247;42.666;23.292;2023-12-20T13:23:27;93846.25;;;8.62;59.69
4469;BME280;2247;42.666;23.292;2023-12-20T13:25:54;93848.88;;;8.62;59.46
4469;BME280;2247;42.666;23.292;2023-12-20T13:28:22;93848.69;;;8.48;60.02